sensor_id;sensor_type;location;lat;lon;timestamp;P1;durP1;ratioP1;P2;durP2;ratioP2
11113;SDS011;5610;52.154;9.198;2023-05-21T00:01:17;13.57;;;12.17;;
11113;SDS011;5610;52.154;9.198;2023-05-21T00:04:02;12.63;;;11.43;;
11113;SDS011;5610;52.154;9.198;2023-05-21T00:06:50;13.30;;;11.80;;
11113;SDS011;5610;52.154;9.198;2023-05-21T00:09:36;13.00;;;11.80;;
11113;SDS011;5610;52.154;9.198;2023-05-21T00:12:21;12.80;;;11.53;;
11113;SDS011;5610;52.154;9.198;2023-05-21T00:15:07;13.33;;;12.10;;
11113;SDS011;5610;52.154;9.198;2023-05-21T00:17:53;12.93;;;11.73;;
11113;SDS011;5610;52.154;9.198;2023-05-21T00:20:39;13.73;;;12.30;;
11113;SDS011;5610;52.154;9.198;2023-05-21T00:23:25;13.80;;;12.60;;
11113;SDS011;5610;52.154;9.198;2023-05-21T00:26:11;13.40;;;12.10;;
11113;SDS011;5610;52.154;9.198;2023-05-21T00:28:58;12.37;;;11.37;;
11113;SDS011;5610;52.154;9.198;2023-05-21T00:31:44;14.03;;;12.20;;
11113;SDS011;5610;52.154;9.198;2023-05-21T00:34:29;13.27;;;11.97;;
11113;SDS011;5610;52.154;9.198;2023-05-21T00:37:15;13.87;;;12.47;;
11113;SDS011;5610;52.154;9.198;2023-05-21T00:40:01;14.27;;;12.93;;
11113;SDS011;5610;52.154;9.198;2023-05-21T00:42:50;13.30;;;12.20;;
11113;SDS011;5610;52.154;9.198;2023-05-21T00:45:35;12.33;;;11.33;;
11113;SDS011;5610;52.154;9.198;2023-05-21T00:48:21;12.90;;;11.77;;
11113;SDS011;5610;52.154;9.198;2023-05-21T00:51:07;14.03;;;12.73;;
11113;SDS011;5610;52.154;9.198;2023-05-21T00:53:52;14.30;;;13.00;;
11113;SDS011;5610;52.154;9.198;2023-05-21T00:56:40;13.63;;;12.40;;
11113;SDS011;5610;52.154;9.198;2023-05-21T00:59:26;13.83;;;12.63;;
11113;SDS011;5610;52.154;9.198;2023-05-21T01:02:11;14.33;;;13.13;;
11113;SDS011;5610;52.154;9.198;2023-05-21T01:05:00;14.10;;;12.70;;
11113;SDS011;5610;52.154;9.198;2023-05-21T01:07:47;12.13;;;11.13;;
11113;SDS011;5610;52.154;9.198;2023-05-21T01:10:32;15.60;;;12.20;;
11113;SDS011;5610;52.154;9.198;2023-05-21T01:13:19;14.10;;;12.80;;
11113;SDS011;5610;52.154;9.198;2023-05-21T01:16:06;13.90;;;12.60;;
11113;SDS011;5610;52.154;9.198;2023-05-21T01:18:53;14.80;;;13.50;;
11113;SDS011;5610;52.154;9.198;2023-05-21T01:21:40;13.60;;;12.20;;
11113;SDS011;5610;52.154;9.198;2023-05-21T01:24:29;15.07;;;13.67;;
11113;SDS011;5610;52.154;9.198;2023-05-21T01:27:15;13.70;;;12.50;;
11113;SDS011;5610;52.154;9.198;2023-05-21T01:30:00;13.77;;;12.53;;
11113;SDS011;5610;52.154;9.198;2023-05-21T01:32:47;13.57;;;12.30;;
11113;SDS011;5610;52.154;9.198;2023-05-21T01:35:34;13.83;;;12.60;;
11113;SDS011;5610;52.154;9.198;2023-05-21T01:38:23;13.63;;;12.33;;
11113;SDS011;5610;52.154;9.198;2023-05-21T01:41:15;13.87;;;12.57;;
11113;SDS011;5610;52.154;9.198;2023-05-21T01:44:02;13.20;;;12.10;;
11113;SDS011;5610;52.154;9.198;2023-05-21T01:46:51;13.60;;;12.37;;
11113;SDS011;5610;52.154;9.198;2023-05-21T01:49:38;13.23;;;12.03;;
11113;SDS011;5610;52.154;9.198;2023-05-21T01:52:24;11.37;;;10.37;;
11113;SDS011;5610;52.154;9.198;2023-05-21T01:55:09;12.50;;;11.40;;
11113;SDS011;5610;52.154;9.198;2023-05-21T01:57:56;12.60;;;11.40;;
11113;SDS011;5610;52.154;9.198;2023-05-21T02:00:42;12.33;;;11.30;;
11113;SDS011;5610;52.154;9.198;2023-05-21T02:03:29;13.40;;;12.20;;
11113;SDS011;5610;52.154;9.198;2023-05-21T02:06:14;12.93;;;11.83;;
11113;SDS011;5610;52.154;9.198;2023-05-21T02:09:00;13.77;;;12.60;;
11113;SDS011;5610;52.154;9.198;2023-05-21T02:11:46;13.90;;;12.60;;
11113;SDS011;5610;52.154;9.198;2023-05-21T02:14:32;12.30;;;11.20;;
11113;SDS011;5610;52.154;9.198;2023-05-21T02:17:18;14.07;;;12.67;;
11113;SDS011;5610;52.154;9.198;2023-05-21T02:20:06;14.23;;;13.00;;
11113;SDS011;5610;52.154;9.198;2023-05-21T02:22:54;12.70;;;11.60;;
11113;SDS011;5610;52.154;9.198;2023-05-21T02:25:39;13.57;;;12.37;;
11113;SDS011;5610;52.154;9.198;2023-05-21T02:28:24;13.20;;;12.07;;
11113;SDS011;5610;52.154;9.198;2023-05-21T02:31:11;13.40;;;12.30;;
11113;SDS011;5610;52.154;9.198;2023-05-21T02:33:56;13.27;;;11.90;;
11113;SDS011;5610;52.154;9.198;2023-05-21T02:36:42;13.77;;;12.53;;
11113;SDS011;5610;52.154;9.198;2023-05-21T02:39:27;13.23;;;11.93;;
11113;SDS011;5610;52.154;9.198;2023-05-21T02:42:12;13.20;;;12.00;;
11113;SDS011;5610;52.154;9.198;2023-05-21T02:44:57;13.37;;;12.00;;
11113;SDS011;5610;52.154;9.198;2023-05-21T02:47:44;12.27;;;11.07;;
11113;SDS011;5610;52.154;9.198;2023-05-21T02:50:30;13.33;;;12.33;;
11113;SDS011;5610;52.154;9.198;2023-05-21T02:53:17;12.33;;;11.23;;
11113;SDS011;5610;52.154;9.198;2023-05-21T02:56:02;13.10;;;11.70;;
11113;SDS011;5610;52.154;9.198;2023-05-21T02:58:48;12.30;;;11.30;;
11113;SDS011;5610;52.154;9.198;2023-05-21T03:01:34;12.30;;;11.10;;
11113;SDS011;5610;52.154;9.198;2023-05-21T03:04:21;14.43;;;12.20;;
11113;SDS011;5610;52.154;9.198;2023-05-21T03:07:06;13.30;;;12.00;;
11113;SDS011;5610;52.154;9.198;2023-05-21T03:09:52;13.07;;;11.73;;
11113;SDS011;5610;52.154;9.198;2023-05-21T03:12:38;13.10;;;11.90;;
11113;SDS011;5610;52.154;9.198;2023-05-21T03:15:23;13.50;;;12.40;;
11113;SDS011;5610;52.154;9.198;2023-05-21T03:18:09;12.73;;;11.17;;
11113;SDS011;5610;52.154;9.198;2023-05-21T03:20:57;14.00;;;12.60;;
11113;SDS011;5610;52.154;9.198;2023-05-21T03:23:42;14.10;;;12.47;;
11113;SDS011;5610;52.154;9.198;2023-05-21T03:26:28;11.87;;;10.87;;
11113;SDS011;5610;52.154;9.198;2023-05-21T03:29:14;13.90;;;12.50;;
11113;SDS011;5610;52.154;9.198;2023-05-21T03:32:01;16.33;;;13.40;;
11113;SDS011;5610;52.154;9.198;2023-05-21T03:34:48;16.40;;;14.80;;
11113;SDS011;5610;52.154;9.198;2023-05-21T03:37:36;14.97;;;13.53;;
11113;SDS011;5610;52.154;9.198;2023-05-21T03:40:21;15.87;;;14.20;;
11113;SDS011;5610;52.154;9.198;2023-05-21T03:43:07;15.50;;;14.00;;
11113;SDS011;5610;52.154;9.198;2023-05-21T03:45:53;16.50;;;14.80;;
11113;SDS011;5610;52.154;9.198;2023-05-21T03:48:57;15.30;;;13.70;;
11113;SDS011;5610;52.154;9.198;2023-05-21T03:51:45;17.47;;;15.50;;
11113;SDS011;5610;52.154;9.198;2023-05-21T03:54:35;15.80;;;14.30;;
11113;SDS011;5610;52.154;9.198;2023-05-21T03:57:24;15.80;;;14.33;;
11113;SDS011;5610;52.154;9.198;2023-05-21T04:00:09;15.57;;;13.93;;
11113;SDS011;5610;52.154;9.198;2023-05-21T04:03:01;14.70;;;13.30;;
11113;SDS011;5610;52.154;9.198;2023-05-21T04:05:46;15.03;;;13.50;;
11113;SDS011;5610;52.154;9.198;2023-05-21T04:08:32;14.80;;;13.30;;
11113;SDS011;5610;52.154;9.198;2023-05-21T04:11:18;15.33;;;13.80;;
11113;SDS011;5610;52.154;9.198;2023-05-21T04:14:05;14.63;;;13.33;;
11113;SDS011;5610;52.154;9.198;2023-05-21T04:16:50;14.13;;;12.90;;
11113;SDS011;5610;52.154;9.198;2023-05-21T04:19:37;15.00;;;13.43;;
11113;SDS011;5610;52.154;9.198;2023-05-21T04:22:22;16.10;;;13.50;;
11113;SDS011;5610;52.154;9.198;2023-05-21T04:25:10;14.87;;;13.10;;
11113;SDS011;5610;52.154;9.198;2023-05-21T04:27:57;15.70;;;13.40;;
11113;SDS011;5610;52.154;9.198;2023-05-21T04:30:42;14.27;;;12.87;;
11113;SDS011;5610;52.154;9.198;2023-05-21T04:33:28;15.63;;;14.13;;
11113;SDS011;5610;52.154;9.198;2023-05-21T04:36:13;14.40;;;13.00;;
11113;SDS011;5610;52.154;9.198;2023-05-21T04:39:00;14.90;;;13.60;;
11113;SDS011;5610;52.154;9.198;2023-05-21T04:41:45;14.90;;;13.40;;
11113;SDS011;5610;52.154;9.198;2023-05-21T04:44:33;14.60;;;13.30;;
11113;SDS011;5610;52.154;9.198;2023-05-21T04:47:18;14.50;;;13.20;;
11113;SDS011;5610;52.154;9.198;2023-05-21T04:50:05;14.00;;;12.60;;
11113;SDS011;5610;52.154;9.198;2023-05-21T04:52:51;14.50;;;13.07;;
11113;SDS011;5610;52.154;9.198;2023-05-21T04:55:37;14.93;;;11.97;;
11113;SDS011;5610;52.154;9.198;2023-05-21T04:58:23;13.63;;;12.43;;
11113;SDS011;5610;52.154;9.198;2023-05-21T05:01:10;13.17;;;12.07;;
11113;SDS011;5610;52.154;9.198;2023-05-21T05:03:55;13.53;;;12.10;;
11113;SDS011;5610;52.154;9.198;2023-05-21T05:06:41;12.93;;;11.73;;
11113;SDS011;5610;52.154;9.198;2023-05-21T05:09:26;13.23;;;12.03;;
11113;SDS011;5610;52.154;9.198;2023-05-21T05:12:13;13.60;;;12.20;;
11113;SDS011;5610;52.154;9.198;2023-05-21T05:14:58;13.40;;;12.30;;
11113;SDS011;5610;52.154;9.198;2023-05-21T05:17:46;13.70;;;12.40;;
11113;SDS011;5610;52.154;9.198;2023-05-21T05:20:33;12.87;;;11.63;;
11113;SDS011;5610;52.154;9.198;2023-05-21T05:23:18;14.90;;;13.47;;
11113;SDS011;5610;52.154;9.198;2023-05-21T05:26:04;13.10;;;11.80;;
11113;SDS011;5610;52.154;9.198;2023-05-21T05:28:50;13.30;;;12.10;;
11113;SDS011;5610;52.154;9.198;2023-05-21T05:31:36;13.23;;;11.97;;
11113;SDS011;5610;52.154;9.198;2023-05-21T05:34:22;13.80;;;12.40;;
11113;SDS011;5610;52.154;9.198;2023-05-21T05:37:08;13.57;;;12.17;;
11113;SDS011;5610;52.154;9.198;2023-05-21T05:39:53;12.90;;;11.73;;
11113;SDS011;5610;52.154;9.198;2023-05-21T05:42:38;14.80;;;13.40;;
11113;SDS011;5610;52.154;9.198;2023-05-21T05:45:28;16.40;;;13.90;;
11113;SDS011;5610;52.154;9.198;2023-05-21T05:48:14;13.57;;;12.07;;
11113;SDS011;5610;52.154;9.198;2023-05-21T05:51:00;13.73;;;11.87;;
11113;SDS011;5610;52.154;9.198;2023-05-21T05:53:46;13.30;;;12.20;;
11113;SDS011;5610;52.154;9.198;2023-05-21T05:56:31;13.63;;;12.23;;
11113;SDS011;5610;52.154;9.198;2023-05-21T05:59:16;14.17;;;12.77;;
11113;SDS011;5610;52.154;9.198;2023-05-21T06:02:05;13.07;;;11.93;;
11113;SDS011;5610;52.154;9.198;2023-05-21T06:04:50;13.90;;;12.20;;
11113;SDS011;5610;52.154;9.198;2023-05-21T06:07:38;13.67;;;12.47;;
11113;SDS011;5610;52.154;9.198;2023-05-21T06:10:24;12.83;;;11.73;;
11113;SDS011;5610;52.154;9.198;2023-05-21T06:13:09;14.17;;;12.80;;
11113;SDS011;5610;52.154;9.198;2023-05-21T06:15:55;12.77;;;11.50;;
11113;SDS011;5610;52.154;9.198;2023-05-21T06:18:41;15.03;;;13.50;;
11113;SDS011;5610;52.154;9.198;2023-05-21T06:21:26;13.70;;;12.60;;
11113;SDS011;5610;52.154;9.198;2023-05-21T06:24:13;14.30;;;13.10;;
11113;SDS011;5610;52.154;9.198;2023-05-21T06:26:58;15.27;;;13.90;;
11113;SDS011;5610;52.154;9.198;2023-05-21T06:29:45;14.40;;;13.00;;
11113;SDS011;5610;52.154;9.198;2023-05-21T06:32:30;14.43;;;13.13;;
11113;SDS011;5610;52.154;9.198;2023-05-21T06:35:15;13.80;;;12.50;;
11113;SDS011;5610;52.154;9.198;2023-05-21T06:38:01;14.50;;;13.20;;
11113;SDS011;5610;52.154;9.198;2023-05-21T06:40:48;14.67;;;13.10;;
11113;SDS011;5610;52.154;9.198;2023-05-21T06:43:45;14.13;;;12.73;;
11113;SDS011;5610;52.154;9.198;2023-05-21T06:46:50;14.70;;;13.30;;
11113;SDS011;5610;52.154;9.198;2023-05-21T06:49:36;15.53;;;14.03;;
11113;SDS011;5610;52.154;9.198;2023-05-21T06:52:22;14.53;;;13.23;;
11113;SDS011;5610;52.154;9.198;2023-05-21T06:55:07;15.40;;;14.00;;
11113;SDS011;5610;52.154;9.198;2023-05-21T06:58:13;14.40;;;13.00;;
11113;SDS011;5610;52.154;9.198;2023-05-21T07:00:59;14.83;;;13.50;;
11113;SDS011;5610;52.154;9.198;2023-05-21T07:03:44;15.47;;;13.97;;
11113;SDS011;5610;52.154;9.198;2023-05-21T07:06:30;14.70;;;13.40;;
11113;SDS011;5610;52.154;9.198;2023-05-21T07:09:15;16.03;;;14.57;;
11113;SDS011;5610;52.154;9.198;2023-05-21T07:12:01;17.47;;;15.23;;
11113;SDS011;5610;52.154;9.198;2023-05-21T07:14:48;15.67;;;14.27;;
11113;SDS011;5610;52.154;9.198;2023-05-21T07:17:33;17.73;;;16.10;;
11113;SDS011;5610;52.154;9.198;2023-05-21T07:20:20;17.17;;;15.63;;
11113;SDS011;5610;52.154;9.198;2023-05-21T07:23:07;16.77;;;15.13;;
11113;SDS011;5610;52.154;9.198;2023-05-21T07:25:52;18.47;;;16.57;;
11113;SDS011;5610;52.154;9.198;2023-05-21T07:28:38;17.70;;;16.10;;
11113;SDS011;5610;52.154;9.198;2023-05-21T07:31:25;18.33;;;16.37;;
11113;SDS011;5610;52.154;9.198;2023-05-21T07:34:10;17.43;;;15.67;;
11113;SDS011;5610;52.154;9.198;2023-05-21T07:36:57;18.63;;;17.00;;
11113;SDS011;5610;52.154;9.198;2023-05-21T07:39:42;19.23;;;17.47;;
11113;SDS011;5610;52.154;9.198;2023-05-21T07:42:29;17.63;;;16.10;;
11113;SDS011;5610;52.154;9.198;2023-05-21T07:45:15;19.80;;;17.80;;
11113;SDS011;5610;52.154;9.198;2023-05-21T07:48:02;17.67;;;16.07;;
11113;SDS011;5610;52.154;9.198;2023-05-21T07:50:50;19.23;;;17.33;;
11113;SDS011;5610;52.154;9.198;2023-05-21T07:53:36;18.93;;;17.13;;
11113;SDS011;5610;52.154;9.198;2023-05-21T07:56:26;20.43;;;18.30;;
11113;SDS011;5610;52.154;9.198;2023-05-21T07:59:12;18.30;;;16.63;;
11113;SDS011;5610;52.154;9.198;2023-05-21T08:01:58;18.07;;;16.37;;
11113;SDS011;5610;52.154;9.198;2023-05-21T08:04:45;20.93;;;19.00;;
11113;SDS011;5610;52.154;9.198;2023-05-21T08:07:31;20.33;;;18.23;;
11113;SDS011;5610;52.154;9.198;2023-05-21T08:10:17;21.33;;;19.43;;
11113;SDS011;5610;52.154;9.198;2023-05-21T08:13:02;19.70;;;17.90;;
11113;SDS011;5610;52.154;9.198;2023-05-21T08:15:47;20.97;;;19.13;;
11113;SDS011;5610;52.154;9.198;2023-05-21T08:18:33;21.10;;;19.30;;
11113;SDS011;5610;52.154;9.198;2023-05-21T08:21:21;22.03;;;19.93;;
11113;SDS011;5610;52.154;9.198;2023-05-21T08:24:07;20.67;;;18.87;;
11113;SDS011;5610;52.154;9.198;2023-05-21T08:26:52;20.97;;;19.00;;
11113;SDS011;5610;52.154;9.198;2023-05-21T08:29:37;22.47;;;20.30;;
11113;SDS011;5610;52.154;9.198;2023-05-21T08:32:24;22.77;;;20.63;;
11113;SDS011;5610;52.154;9.198;2023-05-21T08:35:11;21.20;;;19.20;;
11113;SDS011;5610;52.154;9.198;2023-05-21T08:38:12;20.40;;;18.57;;
11113;SDS011;5610;52.154;9.198;2023-05-21T08:41:13;20.17;;;18.30;;
11113;SDS011;5610;52.154;9.198;2023-05-21T08:44:00;19.20;;;17.60;;
11113;SDS011;5610;52.154;9.198;2023-05-21T08:46:47;19.50;;;17.67;;
11113;SDS011;5610;52.154;9.198;2023-05-21T08:49:34;20.53;;;18.80;;
11113;SDS011;5610;52.154;9.198;2023-05-21T08:52:19;21.00;;;18.90;;
11113;SDS011;5610;52.154;9.198;2023-05-21T08:55:07;22.03;;;19.97;;
11113;SDS011;5610;52.154;9.198;2023-05-21T08:57:54;20.70;;;18.83;;
11113;SDS011;5610;52.154;9.198;2023-05-21T09:00:41;19.30;;;17.60;;
11113;SDS011;5610;52.154;9.198;2023-05-21T09:03:27;20.60;;;18.80;;
11113;SDS011;5610;52.154;9.198;2023-05-21T09:06:14;19.13;;;17.50;;
11113;SDS011;5610;52.154;9.198;2023-05-21T09:09:01;20.53;;;18.67;;
11113;SDS011;5610;52.154;9.198;2023-05-21T09:11:59;20.37;;;18.57;;
11113;SDS011;5610;52.154;9.198;2023-05-21T09:14:45;19.40;;;17.70;;
11113;SDS011;5610;52.154;9.198;2023-05-21T09:17:34;21.00;;;19.00;;
11113;SDS011;5610;52.154;9.198;2023-05-21T09:20:55;20.20;;;18.53;;
11113;SDS011;5610;52.154;9.198;2023-05-21T09:23:42;20.23;;;18.43;;
11113;SDS011;5610;52.154;9.198;2023-05-21T09:26:28;19.47;;;17.67;;
11113;SDS011;5610;52.154;9.198;2023-05-21T09:29:20;20.77;;;18.87;;
11113;SDS011;5610;52.154;9.198;2023-05-21T09:32:06;21.40;;;19.50;;
11113;SDS011;5610;52.154;9.198;2023-05-21T09:34:56;20.83;;;18.60;;
11113;SDS011;5610;52.154;9.198;2023-05-21T09:37:49;20.37;;;18.43;;
11113;SDS011;5610;52.154;9.198;2023-05-21T09:40:38;20.40;;;18.40;;
11113;SDS011;5610;52.154;9.198;2023-05-21T09:43:27;21.43;;;19.47;;
11113;SDS011;5610;52.154;9.198;2023-05-21T09:46:14;20.10;;;18.20;;
11113;SDS011;5610;52.154;9.198;2023-05-21T09:49:00;22.60;;;20.63;;
11113;SDS011;5610;52.154;9.198;2023-05-21T09:51:45;19.60;;;17.90;;
11113;SDS011;5610;52.154;9.198;2023-05-21T09:54:30;19.97;;;18.20;;
11113;SDS011;5610;52.154;9.198;2023-05-21T09:57:21;19.43;;;17.67;;
11113;SDS011;5610;52.154;9.198;2023-05-21T10:00:08;20.77;;;17.93;;
11113;SDS011;5610;52.154;9.198;2023-05-21T10:03:04;18.90;;;17.10;;
11113;SDS011;5610;52.154;9.198;2023-05-21T10:05:53;19.30;;;17.70;;
11113;SDS011;5610;52.154;9.198;2023-05-21T10:08:41;19.60;;;17.80;;
11113;SDS011;5610;52.154;9.198;2023-05-21T10:11:29;20.37;;;18.40;;
11113;SDS011;5610;52.154;9.198;2023-05-21T10:14:16;19.40;;;17.60;;
11113;SDS011;5610;52.154;9.198;2023-05-21T10:17:05;18.07;;;16.47;;
11113;SDS011;5610;52.154;9.198;2023-05-21T10:19:51;19.40;;;17.80;;
11113;SDS011;5610;52.154;9.198;2023-05-21T10:22:39;19.07;;;17.53;;
11113;SDS011;5610;52.154;9.198;2023-05-21T10:25:26;17.73;;;16.27;;
11113;SDS011;5610;52.154;9.198;2023-05-21T10:28:15;18.73;;;17.10;;
11113;SDS011;5610;52.154;9.198;2023-05-21T10:31:01;17.20;;;15.70;;
11113;SDS011;5610;52.154;9.198;2023-05-21T10:33:47;19.07;;;17.20;;
11113;SDS011;5610;52.154;9.198;2023-05-21T10:36:34;18.77;;;17.03;;
11113;SDS011;5610;52.154;9.198;2023-05-21T10:39:21;18.90;;;17.30;;
11113;SDS011;5610;52.154;9.198;2023-05-21T10:42:14;18.57;;;16.90;;
11113;SDS011;5610;52.154;9.198;2023-05-21T10:45:07;19.20;;;17.50;;
11113;SDS011;5610;52.154;9.198;2023-05-21T10:48:13;18.53;;;16.93;;
11113;SDS011;5610;52.154;9.198;2023-05-21T10:51:17;19.37;;;17.60;;
11113;SDS011;5610;52.154;9.198;2023-05-21T10:54:16;18.27;;;16.73;;
11113;SDS011;5610;52.154;9.198;2023-05-21T10:57:18;18.50;;;17.00;;
11113;SDS011;5610;52.154;9.198;2023-05-21T11:00:16;18.30;;;16.70;;
11113;SDS011;5610;52.154;9.198;2023-05-21T11:03:03;19.33;;;17.53;;
11113;SDS011;5610;52.154;9.198;2023-05-21T11:05:53;18.20;;;16.80;;
11113;SDS011;5610;52.154;9.198;2023-05-21T11:08:39;19.10;;;17.13;;
11113;SDS011;5610;52.154;9.198;2023-05-21T11:11:45;19.70;;;18.10;;
11113;SDS011;5610;52.154;9.198;2023-05-21T11:14:34;20.20;;;18.27;;
11113;SDS011;5610;52.154;9.198;2023-05-21T11:17:35;18.17;;;16.77;;
11113;SDS011;5610;52.154;9.198;2023-05-21T11:20:21;20.77;;;18.97;;
11113;SDS011;5610;52.154;9.198;2023-05-21T11:23:06;20.33;;;18.53;;
11113;SDS011;5610;52.154;9.198;2023-05-21T11:25:59;18.53;;;16.83;;
11113;SDS011;5610;52.154;9.198;2023-05-21T11:28:47;20.03;;;17.50;;
11113;SDS011;5610;52.154;9.198;2023-05-21T11:31:34;19.47;;;17.60;;
11113;SDS011;5610;52.154;9.198;2023-05-21T11:34:23;19.50;;;17.80;;
11113;SDS011;5610;52.154;9.198;2023-05-21T11:37:21;19.07;;;17.47;;
11113;SDS011;5610;52.154;9.198;2023-05-21T11:40:16;19.93;;;18.00;;
11113;SDS011;5610;52.154;9.198;2023-05-21T11:43:03;20.80;;;19.13;;
11113;SDS011;5610;52.154;9.198;2023-05-21T11:45:50;18.80;;;17.40;;
11113;SDS011;5610;52.154;9.198;2023-05-21T11:48:36;19.13;;;17.50;;
11113;SDS011;5610;52.154;9.198;2023-05-21T11:51:22;21.07;;;19.27;;
11113;SDS011;5610;52.154;9.198;2023-05-21T11:54:08;19.07;;;17.47;;
11113;SDS011;5610;52.154;9.198;2023-05-21T11:56:54;20.00;;;18.30;;
11113;SDS011;5610;52.154;9.198;2023-05-21T11:59:40;19.67;;;18.17;;
11113;SDS011;5610;52.154;9.198;2023-05-21T12:02:30;17.93;;;16.17;;
11113;SDS011;5610;52.154;9.198;2023-05-21T12:05:16;18.57;;;16.97;;
11113;SDS011;5610;52.154;9.198;2023-05-21T12:08:01;18.20;;;16.70;;
11113;SDS011;5610;52.154;9.198;2023-05-21T12:10:46;18.30;;;16.87;;
11113;SDS011;5610;52.154;9.198;2023-05-21T12:13:32;18.43;;;17.17;;
11113;SDS011;5610;52.154;9.198;2023-05-21T12:16:17;19.50;;;17.90;;
11113;SDS011;5610;52.154;9.198;2023-05-21T12:19:04;18.87;;;17.43;;
11113;SDS011;5610;52.154;9.198;2023-05-21T12:21:50;20.00;;;18.50;;
11113;SDS011;5610;52.154;9.198;2023-05-21T12:24:35;20.90;;;19.40;;
11113;SDS011;5610;52.154;9.198;2023-05-21T12:27:21;19.53;;;18.00;;
11113;SDS011;5610;52.154;9.198;2023-05-21T12:30:07;20.50;;;18.70;;
11113;SDS011;5610;52.154;9.198;2023-05-21T12:32:56;19.43;;;17.93;;
11113;SDS011;5610;52.154;9.198;2023-05-21T12:35:45;19.27;;;17.57;;
11113;SDS011;5610;52.154;9.198;2023-05-21T12:38:32;20.57;;;18.87;;
11113;SDS011;5610;52.154;9.198;2023-05-21T12:41:18;21.47;;;19.47;;
11113;SDS011;5610;52.154;9.198;2023-05-21T12:44:03;19.20;;;17.40;;
11113;SDS011;5610;52.154;9.198;2023-05-21T12:46:51;18.87;;;17.43;;
11113;SDS011;5610;52.154;9.198;2023-05-21T12:49:37;19.63;;;18.07;;
11113;SDS011;5610;52.154;9.198;2023-05-21T12:52:25;19.40;;;18.00;;
11113;SDS011;5610;52.154;9.198;2023-05-21T12:55:11;19.20;;;17.60;;
11113;SDS011;5610;52.154;9.198;2023-05-21T12:58:00;19.50;;;18.00;;
11113;SDS011;5610;52.154;9.198;2023-05-21T13:00:47;19.53;;;18.00;;
11113;SDS011;5610;52.154;9.198;2023-05-21T13:03:33;19.80;;;18.10;;
11113;SDS011;5610;52.154;9.198;2023-05-21T13:06:18;21.00;;;18.90;;
11113;SDS011;5610;52.154;9.198;2023-05-21T13:09:04;19.90;;;18.23;;
11113;SDS011;5610;52.154;9.198;2023-05-21T13:11:50;19.73;;;18.13;;
11113;SDS011;5610;52.154;9.198;2023-05-21T13:14:35;18.80;;;17.30;;
11113;SDS011;5610;52.154;9.198;2023-05-21T13:17:20;19.30;;;17.80;;
11113;SDS011;5610;52.154;9.198;2023-05-21T13:20:08;19.33;;;17.80;;
11113;SDS011;5610;52.154;9.198;2023-05-21T13:22:54;19.47;;;17.90;;
11113;SDS011;5610;52.154;9.198;2023-05-21T13:25:41;20.50;;;18.67;;
11113;SDS011;5610;52.154;9.198;2023-05-21T13:28:26;18.73;;;17.23;;
11113;SDS011;5610;52.154;9.198;2023-05-21T13:31:12;18.00;;;16.60;;
11113;SDS011;5610;52.154;9.198;2023-05-21T13:33:58;19.90;;;18.40;;
11113;SDS011;5610;52.154;9.198;2023-05-21T13:36:44;17.90;;;16.30;;
11113;SDS011;5610;52.154;9.198;2023-05-21T13:39:30;18.40;;;16.77;;
11113;SDS011;5610;52.154;9.198;2023-05-21T13:42:16;17.83;;;16.47;;
11113;SDS011;5610;52.154;9.198;2023-05-21T13:45:02;18.03;;;16.63;;
11113;SDS011;5610;52.154;9.198;2023-05-21T13:47:48;18.43;;;17.03;;
11113;SDS011;5610;52.154;9.198;2023-05-21T13:50:33;18.90;;;17.40;;
11113;SDS011;5610;52.154;9.198;2023-05-21T13:53:19;17.93;;;16.43;;
11113;SDS011;5610;52.154;9.198;2023-05-21T13:56:05;18.47;;;16.77;;
11113;SDS011;5610;52.154;9.198;2023-05-21T13:58:52;18.33;;;16.93;;
11113;SDS011;5610;52.154;9.198;2023-05-21T14:01:37;19.27;;;17.67;;
11113;SDS011;5610;52.154;9.198;2023-05-21T14:04:23;20.40;;;18.60;;
11113;SDS011;5610;52.154;9.198;2023-05-21T14:07:09;20.03;;;18.17;;
11113;SDS011;5610;52.154;9.198;2023-05-21T14:09:55;19.30;;;17.80;;
11113;SDS011;5610;52.154;9.198;2023-05-21T14:12:40;19.63;;;17.90;;
11113;SDS011;5610;52.154;9.198;2023-05-21T14:15:29;20.00;;;18.40;;
11113;SDS011;5610;52.154;9.198;2023-05-21T14:18:15;18.87;;;17.30;;
11113;SDS011;5610;52.154;9.198;2023-05-21T14:21:00;19.10;;;17.60;;
11113;SDS011;5610;52.154;9.198;2023-05-21T14:23:46;19.57;;;17.87;;
11113;SDS011;5610;52.154;9.198;2023-05-21T14:26:32;18.03;;;16.63;;
11113;SDS011;5610;52.154;9.198;2023-05-21T14:29:19;18.33;;;16.67;;
11113;SDS011;5610;52.154;9.198;2023-05-21T14:32:06;18.40;;;16.93;;
11113;SDS011;5610;52.154;9.198;2023-05-21T14:34:52;18.30;;;16.77;;
11113;SDS011;5610;52.154;9.198;2023-05-21T14:37:37;19.13;;;17.40;;
11113;SDS011;5610;52.154;9.198;2023-05-21T14:40:22;18.00;;;16.50;;
11113;SDS011;5610;52.154;9.198;2023-05-21T14:43:07;18.40;;;17.00;;
11113;SDS011;5610;52.154;9.198;2023-05-21T14:45:53;18.03;;;16.50;;
11113;SDS011;5610;52.154;9.198;2023-05-21T14:48:39;19.80;;;17.53;;
11113;SDS011;5610;52.154;9.198;2023-05-21T14:51:24;19.00;;;17.40;;
11113;SDS011;5610;52.154;9.198;2023-05-21T14:54:09;18.07;;;16.57;;
11113;SDS011;5610;52.154;9.198;2023-05-21T14:56:54;17.77;;;16.37;;
11113;SDS011;5610;52.154;9.198;2023-05-21T14:59:40;20.07;;;18.00;;
11113;SDS011;5610;52.154;9.198;2023-05-21T15:02:25;18.10;;;16.50;;
11113;SDS011;5610;52.154;9.198;2023-05-21T15:05:11;17.23;;;15.80;;
11113;SDS011;5610;52.154;9.198;2023-05-21T15:07:57;18.23;;;16.73;;
11113;SDS011;5610;52.154;9.198;2023-05-21T15:10:42;18.07;;;16.57;;
11113;SDS011;5610;52.154;9.198;2023-05-21T15:13:27;17.43;;;16.03;;
11113;SDS011;5610;52.154;9.198;2023-05-21T15:16:12;18.50;;;17.03;;
11113;SDS011;5610;52.154;9.198;2023-05-21T15:18:58;18.83;;;17.30;;
11113;SDS011;5610;52.154;9.198;2023-05-21T15:21:44;18.70;;;17.20;;
11113;SDS011;5610;52.154;9.198;2023-05-21T15:24:30;17.27;;;16.07;;
11113;SDS011;5610;52.154;9.198;2023-05-21T15:27:15;17.70;;;16.20;;
11113;SDS011;5610;52.154;9.198;2023-05-21T15:30:01;18.33;;;16.67;;
11113;SDS011;5610;52.154;9.198;2023-05-21T15:32:49;17.23;;;15.83;;
11113;SDS011;5610;52.154;9.198;2023-05-21T15:35:34;18.30;;;16.90;;
11113;SDS011;5610;52.154;9.198;2023-05-21T15:38:20;18.03;;;16.53;;
11113;SDS011;5610;52.154;9.198;2023-05-21T15:41:06;17.63;;;16.30;;
11113;SDS011;5610;52.154;9.198;2023-05-21T15:43:51;18.10;;;16.60;;
11113;SDS011;5610;52.154;9.198;2023-05-21T15:46:36;18.33;;;16.93;;
11113;SDS011;5610;52.154;9.198;2023-05-21T15:49:21;18.60;;;17.00;;
11113;SDS011;5610;52.154;9.198;2023-05-21T15:52:06;18.23;;;16.23;;
11113;SDS011;5610;52.154;9.198;2023-05-21T15:54:53;18.10;;;16.60;;
11113;SDS011;5610;52.154;9.198;2023-05-21T15:57:38;17.50;;;15.70;;
11113;SDS011;5610;52.154;9.198;2023-05-21T16:00:23;16.73;;;15.33;;
11113;SDS011;5610;52.154;9.198;2023-05-21T16:03:09;18.27;;;16.40;;
11113;SDS011;5610;52.154;9.198;2023-05-21T16:05:55;17.23;;;15.83;;
11113;SDS011;5610;52.154;9.198;2023-05-21T16:08:40;16.60;;;15.17;;
11113;SDS011;5610;52.154;9.198;2023-05-21T16:11:27;16.97;;;15.37;;
11113;SDS011;5610;52.154;9.198;2023-05-21T16:14:12;16.83;;;15.40;;
11113;SDS011;5610;52.154;9.198;2023-05-21T16:16:57;17.03;;;15.40;;
11113;SDS011;5610;52.154;9.198;2023-05-21T16:19:42;16.60;;;14.97;;
11113;SDS011;5610;52.154;9.198;2023-05-21T16:22:27;15.87;;;14.47;;
11113;SDS011;5610;52.154;9.198;2023-05-21T16:25:12;15.00;;;13.50;;
11113;SDS011;5610;52.154;9.198;2023-05-21T16:27:59;14.40;;;12.70;;
11113;SDS011;5610;52.154;9.198;2023-05-21T16:30:45;14.23;;;13.13;;